Pagrindinis puslapis
METAR-TAF:

METAR-TAF

Oro uostai :

Pecos, Teksasas, Jungtinės Amerikos Valstijos

platuma: 31-22-56N, ilguma: 103-30-38W, Aukštis: 796 m

Dabartinis oras

Ataskaita buvo paskelbta 15 minutes, ne 11:35 UTC
Vėjas 3 kt iš Šiaurės/Šiaurės Rytų
Temperatūra 17°C
Drėgmė 48%
Slėgis 1024 hPa
Matomumas: 16.1 km
Giedras dangus

METAR: KPEQ 291135Z AUTO 03003KT 10SM CLR 17/06 A3024 RMK AO2 T01710062

Laikas: 06:50 (11:50 UTC)

Prognozė

Ataskaita buvo paskelbta 30 minutes, ne 11:20 UTC
Prognozė galioja nuo 29 metu 12 UTC su 30 metu 12 UTC
Vėjas 11 kt iš Rytų
Matomumas: 10 km
Mažai debesys ne aukštis 25000 ft

TAF: KPEQ 291120Z 2912/3012 09011KT P6SM FEW250

Orai ataskaitas ir orų prognozės (METAR, TAF).

turimą stotys yra geltonos ir raudonos taškus žemėlapyje.

Perkelti pele per norėdami pamatyti stoties vardą.

Tada spustelėkite, norėdami matyti oro stebėjimo ir prognozės.

Norėdami pakeisti žemėlapį: spustelėkite ant žalios mygtukų su juodo kryžiaus žemyn,; žalią mygtuką su brūkšneliu, jei norite nutolinti; arba žalių rodyklių gretimoms žemėlapius.


METAR-TAF: